createdAt,value
2023-01-10T01:50:51.580Z,-3.06
2023-01-10T01:53:21.239Z,-2.73
2023-01-10T02:00:54.077Z,-2.43
2023-01-10T02:03:21.051Z,-2.44
2023-01-10T02:05:48.264Z,-2.43
2023-01-10T02:08:15.238Z,-2.40
2023-01-10T02:11:21.327Z,-2.37
2023-01-10T02:13:49.632Z,-2.36
2023-01-10T02:16:17.232Z,-2.37
2023-01-10T02:18:44.219Z,-2.32
2023-01-10T02:21:53.334Z,-2.18
2023-01-10T02:24:46.286Z,-2.15
2023-01-10T02:27:22.711Z,-2.09
2023-01-10T02:29:57.876Z,-2.10
2023-01-10T02:32:42.079Z,-2.13
2023-01-10T02:35:54.027Z,-2.14
2023-01-10T02:38:23.203Z,-2.19
2023-01-10T02:41:16.416Z,-2.20
2023-01-10T02:43:50.170Z,-2.16
2023-01-10T02:46:24.713Z,-2.09
2023-01-10T02:48:53.776Z,-2.03
2023-01-10T02:51:28.577Z,-2.03
2023-01-10T02:54:31.261Z,-2.05
2023-01-10T02:57:19.462Z,-2.07
2023-01-10T02:59:59.180Z,-2.03
2023-01-10T03:02:38.364Z,-2.03
2023-01-10T03:05:09.002Z,-2.01
2023-01-10T03:07:38.352Z,-1.99
2023-01-10T03:10:14.646Z,-2.00
2023-01-10T03:13:12.773Z,-1.96
2023-01-10T03:15:39.975Z,-1.84
2023-01-10T03:18:10.848Z,-1.81
2023-01-10T03:20:38.554Z,-1.85
2023-01-10T03:23:06.612Z,-1.87
2023-01-10T03:25:35.375Z,-1.85
2023-01-10T03:28:02.652Z,-1.89
2023-01-10T03:30:48.328Z,-1.91
2023-01-10T03:33:17.152Z,-1.94
2023-01-10T03:36:10.649Z,-1.96
2023-01-10T03:39:04.429Z,-2.02
2023-01-10T03:41:48.528Z,-2.02
2023-01-10T03:44:35.426Z,-1.97
2023-01-10T03:47:21.204Z,-1.98
2023-01-10T03:49:50.047Z,-1.98
2023-01-10T06:45:17.708Z,-5.22
2023-01-10T06:53:00.753Z,-4.53
2023-01-10T06:55:28.388Z,-4.37
2023-01-10T06:57:58.714Z,-4.24
2023-01-10T07:00:26.923Z,-4.20
2023-01-10T07:02:57.987Z,-4.22
2023-01-10T07:05:24.933Z,-4.23
2023-01-10T07:07:52.418Z,-4.19
2023-01-10T07:10:19.448Z,-4.11
2023-01-10T07:12:46.931Z,-4.02
2023-01-10T07:15:18.056Z,-3.95
2023-01-10T07:17:45.106Z,-3.90
2023-01-10T07:20:12.507Z,-3.87
2023-01-10T07:22:39.585Z,-3.86
2023-01-10T07:25:07.149Z,-3.87
2023-01-10T07:27:35.350Z,-3.84
2023-01-10T07:30:02.286Z,-3.78
2023-01-10T07:32:29.425Z,-3.73
2023-01-10T07:34:57.859Z,-3.73
2023-01-10T07:37:25.116Z,-3.74
2023-01-10T07:39:52.223Z,-3.73
2023-01-10T07:42:23.703Z,-3.72
2023-01-10T07:44:50.808Z,-3.71
2023-01-10T07:47:18.024Z,-3.71
2023-01-10T07:49:46.069Z,-3.70
2023-01-10T07:52:12.998Z,-3.67
2023-01-10T07:54:40.018Z,-3.66
2023-01-10T07:57:06.992Z,-3.61
2023-01-10T07:59:34.039Z,-3.60
2023-01-10T08:02:01.092Z,-3.55
2023-01-10T08:04:29.421Z,-3.43
2023-01-10T08:06:56.556Z,-3.30
2023-01-10T08:09:23.468Z,-3.26
2023-01-10T08:11:50.449Z,-3.21
2023-01-10T08:14:17.521Z,-3.15
2023-01-10T08:16:44.443Z,-3.16
2023-01-10T08:19:16.428Z,-3.09
2023-01-10T08:21:43.759Z,-3.07
2023-01-10T08:24:11.067Z,-3.03
2023-01-10T08:26:40.982Z,-2.95
2023-01-10T08:29:08.098Z,-2.88
2023-01-10T08:31:35.382Z,-2.82
2023-01-10T08:34:02.188Z,-2.77
2023-01-10T08:36:29.643Z,-2.73
2023-01-10T08:38:57.024Z,-2.71
2023-01-10T08:41:24.311Z,-2.68
2023-01-10T08:43:51.692Z,-2.61
2023-01-10T08:46:19.654Z,-2.43
2023-01-10T08:48:47.996Z,-2.37
2023-01-10T08:51:14.937Z,-2.34
2023-01-10T08:53:42.375Z,-2.35
2023-01-10T08:56:09.666Z,-2.33
2023-01-10T08:58:36.612Z,-2.31
2023-01-10T09:01:05.458Z,-2.35
2023-01-10T09:03:32.854Z,-2.40
2023-01-10T09:06:01.531Z,-2.38
2023-01-10T09:08:28.499Z,-2.30
2023-01-10T09:11:00.690Z,-2.32
2023-01-10T09:13:30.853Z,-2.41
2023-01-10T09:15:58.026Z,-2.47
2023-01-10T09:18:25.090Z,-2.50
2023-01-10T09:20:52.311Z,-2.51
2023-01-10T09:23:20.918Z,-2.55
2023-01-10T09:25:51.834Z,-2.58
2023-01-10T09:28:21.631Z,-2.57
2023-01-10T09:30:48.627Z,-2.58
2023-01-10T09:38:18.709Z,-2.59
2023-01-10T09:41:11.255Z,-2.56
2023-01-10T09:43:53.152Z,-2.54
2023-01-10T09:46:41.862Z,-2.53
2023-01-10T09:49:30.487Z,-2.56
2023-01-10T09:51:59.113Z,-2.52
2023-01-10T09:54:28.714Z,-2.49
2023-01-10T09:56:56.049Z,-2.49
2023-01-10T09:59:25.988Z,-2.51
2023-01-10T10:01:59.026Z,-2.52
2023-01-10T10:04:35.638Z,-2.56
2023-01-10T10:42:59.855Z,-3.47
2023-01-10T10:45:39.643Z,-3.19
2023-01-10T10:48:14.972Z,-3.01
2023-01-10T10:51:02.604Z,-2.94
2023-01-10T10:53:31.655Z,-2.90
2023-01-10T10:55:59.033Z,-2.88
2023-01-10T10:58:26.701Z,-2.83
2023-01-10T11:00:54.897Z,-2.81
2023-01-10T11:04:01.771Z,-2.78
2023-01-10T11:06:33.186Z,-2.77
2023-01-10T11:09:06.999Z,-2.71
2023-01-10T11:11:47.746Z,-2.69
2023-01-10T11:14:15.073Z,-2.66
2023-01-10T11:16:45.219Z,-2.64
2023-01-10T11:19:24.493Z,-2.57
2023-01-10T11:22:04.822Z,-2.53
2023-01-10T11:24:37.108Z,-2.52
2023-01-10T11:27:14.829Z,-2.50
2023-01-10T11:29:49.825Z,-2.46
2023-01-10T11:32:18.241Z,-2.44
2023-01-10T11:35:02.880Z,-2.40
2023-01-10T11:37:32.957Z,-2.31
2023-01-10T11:40:20.444Z,-2.17
2023-01-10T11:42:47.547Z,-2.08
2023-01-10T11:45:17.862Z,-2.12
2023-01-10T11:47:58.678Z,-2.17
2023-01-10T11:50:32.145Z,-2.19
2023-01-10T11:52:59.722Z,-2.20
2023-01-10T11:55:27.968Z,-2.17
2023-01-10T11:58:13.043Z,-2.25
2023-01-10T12:00:44.176Z,-2.28
2023-01-10T12:03:20.596Z,-2.24
2023-01-10T12:06:16.024Z,-2.26
2023-01-10T12:08:45.332Z,-2.25
2023-01-10T12:11:15.510Z,-2.24
2023-01-10T12:13:45.243Z,-2.22
2023-01-10T12:16:17.087Z,-2.18
2023-01-10T12:18:44.573Z,-2.19
2023-01-10T12:21:12.885Z,-2.19
2023-01-10T12:23:41.882Z,-2.19
2023-01-10T12:26:12.171Z,-2.18
2023-01-10T12:28:58.722Z,-2.20
2023-01-10T12:31:26.275Z,-2.25
2023-01-10T12:33:59.433Z,-2.26
2023-01-10T12:36:58.977Z,-2.31
2023-01-10T12:39:33.601Z,-2.33
2023-01-10T12:42:28.888Z,-2.27
2023-01-10T12:45:21.176Z,-2.27
2023-01-10T12:48:05.277Z,-2.28
2023-01-10T12:50:37.728Z,-2.29
2023-01-10T12:53:36.709Z,-2.29
2023-01-10T12:56:06.626Z,-2.29
2023-01-10T12:58:59.141Z,-2.30
2023-01-10T13:01:31.647Z,-2.34
2023-01-10T13:04:10.805Z,-2.37
2023-01-10T13:06:39.332Z,-2.40
2023-01-10T13:09:13.770Z,-2.43
2023-01-10T13:11:44.881Z,-2.44
2023-01-10T13:14:14.132Z,-2.43
2023-01-10T13:16:53.266Z,-2.44
2023-01-10T13:21:01.711Z,-2.47
2023-01-10T13:23:33.818Z,-2.53
2023-01-10T13:26:04.944Z,-2.52
2023-01-10T13:28:33.594Z,-2.54
2023-01-10T13:31:28.941Z,-2.55
2023-01-10T13:34:00.502Z,-2.59
2023-01-10T13:36:35.837Z,-2.61
2023-01-10T13:39:04.548Z,-2.61
2023-01-10T13:42:18.605Z,-2.60
2023-01-10T13:45:02.084Z,-2.62
2023-01-10T13:47:45.672Z,-2.64
2023-01-10T13:50:36.339Z,-2.62
2023-01-10T13:53:04.484Z,-2.65
2023-01-10T13:55:42.917Z,-2.63
2023-01-10T13:58:16.419Z,-2.63
2023-01-10T16:04:11.622Z,-3.66
2023-01-10T16:06:38.914Z,-3.40
2023-01-10T16:09:07.312Z,-3.27
2023-01-10T16:11:56.093Z,-3.12
2023-01-10T16:14:23.111Z,-3.01
2023-01-10T16:16:50.611Z,-2.94
2023-01-10T16:19:17.522Z,-2.87
2023-01-10T16:21:46.605Z,-2.83
2023-01-10T16:24:35.519Z,-2.77
2023-01-10T16:27:05.671Z,-2.73
2023-01-10T16:29:33.413Z,-2.72
2023-01-10T16:32:00.648Z,-2.69
2023-01-10T16:34:33.717Z,-2.66
2023-01-10T16:37:00.585Z,-2.64
2023-01-10T16:39:27.665Z,-2.61
2023-01-10T16:42:13.350Z,-2.57
2023-01-10T16:44:41.164Z,-2.54
2023-01-10T16:47:08.095Z,-2.55
2023-01-10T16:49:35.086Z,-2.52
2023-01-10T16:52:03.136Z,-2.51
2023-01-10T16:54:30.645Z,-2.51
2023-01-10T16:56:57.588Z,-2.50
2023-01-10T16:59:24.469Z,-2.49
2023-01-10T17:01:55.922Z,-2.48
2023-01-10T17:04:26.859Z,-2.47
2023-01-10T17:06:56.314Z,-2.48
2023-01-10T17:09:25.128Z,-2.46
2023-01-10T17:12:04.543Z,-2.45
2023-01-10T17:14:35.354Z,-2.43
2023-01-10T17:17:02.811Z,-2.40
2023-01-10T17:19:29.970Z,-2.39
2023-01-10T17:21:57.025Z,-2.38
2023-01-10T17:24:24.382Z,-2.38
2023-01-10T17:26:52.558Z,-2.40
2023-01-10T17:29:19.930Z,-2.39
2023-01-10T17:31:47.230Z,-2.38
2023-01-10T17:34:14.317Z,-2.37
2023-01-10T17:36:42.053Z,-2.38
2023-01-10T17:39:09.387Z,-2.37
2023-01-10T17:41:36.359Z,-2.37
2023-01-10T17:44:03.614Z,-2.38
2023-01-10T17:46:30.589Z,-2.40
2023-01-10T17:48:57.455Z,-2.43
2023-01-10T17:51:24.557Z,-2.45
2023-01-10T17:53:56.915Z,-2.46
2023-01-10T17:56:24.317Z,-2.49
2023-01-10T17:58:53.207Z,-2.52
2023-01-10T18:01:25.254Z,-2.57
2023-01-10T18:03:53.296Z,-2.61
2023-01-10T18:06:24.677Z,-2.65
2023-01-10T18:08:52.931Z,-2.71
2023-01-10T18:11:20.176Z,-2.71
2023-01-10T18:13:48.191Z,-2.76
2023-01-10T18:16:15.600Z,-2.77
2023-01-10T18:18:42.663Z,-2.80
2023-01-10T18:21:14.138Z,-2.83
2023-01-10T18:23:41.192Z,-2.83
2023-01-10T18:26:10.731Z,-2.85
2023-01-10T18:28:43.127Z,-2.84
2023-01-10T18:31:17.171Z,-2.87
2023-01-10T18:33:45.186Z,-2.87
2023-01-10T18:36:17.109Z,-2.86
2023-01-10T18:38:45.481Z,-2.87
2023-01-10T18:41:12.781Z,-2.89
2023-01-10T18:43:39.742Z,-2.95
2023-01-10T18:46:12.360Z,-3.00
2023-01-10T18:48:39.521Z,-3.07
2023-01-10T18:51:08.340Z,-3.16
2023-01-10T18:53:36.078Z,-3.22
2023-01-10T18:56:03.901Z,-3.27
2023-01-10T18:58:31.870Z,-3.35
2023-01-10T19:01:04.678Z,-3.47
2023-01-10T19:03:34.347Z,-3.55
2023-01-10T19:06:02.442Z,-3.59
2023-01-10T19:08:31.581Z,-3.59
2023-01-10T19:11:12.329Z,-3.60
2023-01-10T19:13:39.877Z,-3.62
2023-01-10T19:16:15.302Z,-3.65
2023-01-10T19:18:43.008Z,-3.69
2023-01-10T19:21:14.664Z,-3.74
2023-01-10T19:23:43.026Z,-3.77
2023-01-10T19:26:10.521Z,-3.78
2023-01-10T19:28:37.711Z,-3.81
2023-01-10T19:31:05.375Z,-3.86
2023-01-10T19:33:33.859Z,-3.90
2023-01-10T19:36:05.962Z,-3.90
2023-01-10T19:38:35.909Z,-3.94
2023-01-10T19:41:03.120Z,-3.97
2023-01-10T19:43:30.040Z,-3.98
2023-01-10T19:45:57.516Z,-3.98
2023-01-10T19:48:24.806Z,-3.96
2023-01-10T19:50:51.802Z,-3.96
2023-01-10T19:53:26.507Z,-3.98
2023-01-10T19:56:03.538Z,-4.03
2023-01-10T19:58:31.568Z,-4.07
2023-01-10T22:02:16.148Z,-6.01
2023-01-10T22:04:47.366Z,-5.60
2023-01-10T22:07:14.634Z,-5.43
2023-01-10T22:09:41.731Z,-5.30
2023-01-10T22:12:09.040Z,-5.18
2023-01-10T22:14:36.326Z,-5.08
2023-01-10T22:17:03.923Z,-4.95
2023-01-10T22:19:30.847Z,-4.86
2023-01-10T22:21:57.921Z,-4.86
2023-01-10T22:24:25.100Z,-4.81
2023-01-10T22:26:54.679Z,-4.74
2023-01-10T22:29:22.145Z,-4.65
2023-01-10T22:31:49.367Z,-4.56
2023-01-10T22:34:17.114Z,-4.51
2023-01-10T22:36:44.261Z,-4.48
2023-01-10T22:39:11.518Z,-4.48
2023-01-10T22:41:39.240Z,-4.48
2023-01-10T22:44:06.436Z,-4.48
2023-01-10T22:46:33.743Z,-4.46
2023-01-10T22:49:01.301Z,-4.45
2023-01-10T22:51:28.899Z,-4.47
2023-01-10T22:53:56.353Z,-4.47
2023-01-10T22:56:24.243Z,-4.49
2023-01-10T22:58:51.679Z,-4.44
2023-01-10T23:01:20.131Z,-4.41
2023-01-10T23:03:47.568Z,-4.37
2023-01-10T23:06:14.870Z,-4.34
2023-01-10T23:08:42.149Z,-4.34
2023-01-10T23:11:10.043Z,-4.34
2023-01-10T23:13:37.077Z,-4.36
2023-01-10T23:16:09.376Z,-4.39
2023-01-10T23:18:36.494Z,-4.40
2023-01-10T23:21:03.681Z,-4.41
2023-01-10T23:23:30.794Z,-4.47
2023-01-10T23:26:06.397Z,-4.51
2023-01-10T23:28:47.355Z,-4.52
2023-01-10T23:31:15.955Z,-4.55
2023-01-10T23:33:42.956Z,-4.59
2023-01-10T23:36:10.392Z,-4.66
2023-01-10T23:38:37.573Z,-4.71
2023-01-10T23:41:05.010Z,-4.73
2023-01-10T23:43:32.086Z,-4.77
2023-01-10T23:45:59.441Z,-4.79
2023-01-10T23:48:26.508Z,-4.80
2023-01-10T23:50:53.770Z,-4.79
2023-01-10T23:53:20.873Z,-4.77
2023-01-10T23:55:47.892Z,-4.74
2023-01-10T23:58:17.034Z,-4.75
